Time;durP1;ratioP1;P1;durP2;ratioP2;P2;SDS_P1;SDS_P2;PMS_P1;PMS_P2;Temp;Humidity;BMP_temperature;BMP_pressure;BME280_temperature;BME280_humidity;BME280_pressure;Samples;Min_cycle;Max_cycle;Signal;HPM_P1;HPM_P2
2021/12/29 00:01:48;;;;;;;;;87.75;68.00;7.70;88.20;;;;;;5014390;28;8786;-64
2021/12/29 00:04:15;;;;;;;;;83.50;66.50;7.80;86.10;;;;;;5014846;28;8860;-65
2021/12/29 00:06:42;;;;;;;;;80.00;62.50;7.70;86.50;;;;;;5015498;28;8778;-66
2021/12/29 00:09:08;;;;;;;;;84.75;63.75;7.70;86.70;;;;;;5015142;28;9464;-64
2021/12/29 00:11:39;;;;;;;;;81.50;61.50;8.00;84.20;;;;;;5014887;28;8770;-65
2021/12/29 00:14:07;;;;;;;;;82.50;64.00;7.90;84.20;;;;;;5015036;28;8793;-65
2021/12/29 00:16:35;;;;;;;;;93.00;72.50;8.30;81.70;;;;;;5015077;28;8778;-65
2021/12/29 00:19:05;;;;;;;;;82.00;64.00;8.10;82.30;;;;;;5015004;28;8829;-64
2021/12/29 00:21:34;;;;;;;;;88.00;68.25;7.90;84.50;;;;;;5015060;28;8786;-64
2021/12/29 00:24:02;;;;;;;;;78.75;58.75;8.00;84.20;;;;;;5015045;28;8782;-65
2021/12/29 00:26:30;;;;;;;;;89.25;69.00;7.80;85.30;;;;;;5015264;28;8904;-66
2021/12/29 00:28:59;;;;;;;;;89.75;70.00;7.90;85.50;;;;;;5015206;28;8819;-65
2021/12/29 00:31:27;;;;;;;;;74.75;58.25;7.20;91.00;;;;;;5014905;28;8761;-64
2021/12/29 00:33:52;;;;;;;;;90.75;67.25;7.30;91.00;;;;;;5013738;28;8813;-65
2021/12/29 00:36:18;;;;;;;;;81.50;63.00;7.20;91.70;;;;;;5015060;28;8801;-64
2021/12/29 00:38:45;;;;;;;;;84.00;63.00;7.00;92.40;;;;;;5015103;28;8766;-65
2021/12/29 00:41:11;;;;;;;;;82.00;63.75;7.40;91.00;;;;;;5014807;28;8816;-65
2021/12/29 00:43:37;;;;;;;;;73.75;59.25;7.30;91.40;;;;;;5015025;28;8821;-65
2021/12/29 00:46:04;;;;;;;;;83.50;62.25;7.80;89.20;;;;;;5014658;28;8750;-65
2021/12/29 00:48:34;;;;;;;;;87.50;65.00;7.70;87.80;;;;;;5014959;28;8762;-63
2021/12/29 00:51:00;;;;;;;;;84.00;63.00;7.70;87.90;;;;;;5014917;28;8762;-63
2021/12/29 00:53:26;;;;;;;;;86.00;65.00;7.40;90.00;;;;;;5014841;28;8832;-64
2021/12/29 00:55:52;;;;;;;;;82.25;66.00;7.60;89.90;;;;;;5014832;28;8774;-64
2021/12/29 00:58:18;;;;;;;;;82.00;63.00;7.70;88.70;;;;;;5014566;28;8778;-64
2021/12/29 01:00:43;;;;;;;;;87.75;68.00;8.00;85.60;;;;;;5014830;28;8777;-65
2021/12/29 01:03:10;;;;;;;;;85.25;65.00;8.20;83.10;;;;;;5014573;28;9570;-65
2021/12/29 01:05:38;;;;;;;;;84.00;64.50;8.20;82.00;;;;;;5014474;28;8859;-63
2021/12/29 01:08:04;;;;;;;;;84.50;63.75;7.90;85.00;;;;;;5014759;28;8773;-64
2021/12/29 01:10:30;;;;;;;;;82.75;63.00;7.80;85.90;;;;;;5014481;28;8932;-64
2021/12/29 01:12:59;;;;;;;;;86.50;65.50;7.50;89.30;;;;;;5014640;28;8916;-65
2021/12/29 01:15:32;;;;;;;;;84.50;67.00;7.70;88.00;;;;;;5014480;28;8781;-63
2021/12/29 01:18:00;;;;;;;;;91.50;74.00;7.70;86.90;;;;;;5014521;28;8818;-64
2021/12/29 01:20:28;;;;;;;;;91.75;75.00;7.80;87.70;;;;;;5014432;28;8956;-64
2021/12/29 01:22:57;;;;;;;;;95.00;73.25;8.00;85.70;;;;;;5014441;28;8794;-65
2021/12/29 01:25:23;;;;;;;;;87.25;64.25;8.20;83.60;;;;;;5014656;28;8861;-65
2021/12/29 01:27:49;;;;;;;;;81.75;64.00;8.00;84.80;;;;;;5014579;28;8750;-64
2021/12/29 01:30:15;;;;;;;;;83.00;64.50;7.90;86.70;;;;;;5014360;28;8782;-63
2021/12/29 01:32:41;;;;;;;;;85.50;63.25;8.00;86.00;;;;;;5014264;28;8832;-64
2021/12/29 01:35:10;;;;;;;;;88.75;68.75;8.10;84.60;;;;;;5014291;28;8782;-65
2021/12/29 01:37:37;;;;;;;;;89.00;72.25;7.90;85.70;;;;;;5014229;28;8880;-64
2021/12/29 01:40:07;;;;;;;;;88.50;69.25;7.60;89.10;;;;;;5014314;28;8754;-64
2021/12/29 01:42:33;;;;;;;;;89.00;69.00;7.70;88.20;;;;;;5014190;28;8790;-64
2021/12/29 01:44:59;;;;;;;;;86.50;68.75;7.70;87.60;;;;;;5014493;28;8759;-64
2021/12/29 01:47:27;;;;;;;;;93.25;74.25;8.10;85.70;;;;;;5018200;28;8812;-64
2021/12/29 01:49:54;;;;;;;;;85.25;67.00;7.80;86.70;;;;;;5017954;28;8880;-64
2021/12/29 01:52:24;;;;;;;;;88.00;65.25;7.90;86.30;;;;;;5017824;28;8770;-64
2021/12/29 01:54:50;;;;;;;;;91.75;79.50;7.70;87.00;;;;;;5018154;28;8758;-64
2021/12/29 01:57:17;;;;;;;;;91.00;69.50;7.00;92.10;;;;;;5018033;28;8993;-64
2021/12/29 01:59:43;;;;;;;;;97.25;75.00;6.90;93.70;;;;;;5018081;28;8750;-64
2021/12/29 02:02:14;;;;;;;;;98.50;78.00;7.20;92.40;;;;;;5017705;28;8770;-64
2021/12/29 02:04:46;;;;;;;;;88.25;73.25;7.20;92.70;;;;;;5000362;28;8789;-64
2021/12/29 02:07:12;;;;;;;;;91.75;72.50;7.50;91.00;;;;;;5017575;28;8792;-64
2021/12/29 02:09:39;;;;;;;;;95.50;79.25;7.70;89.40;;;;;;5017647;28;8770;-64
2021/12/29 02:12:06;;;;;;;;;91.75;77.00;7.70;89.60;;;;;;5017535;28;8773;-65
2021/12/29 02:14:34;;;;;;;;;90.75;70.00;8.00;86.60;;;;;;5017480;28;8809;-64
2021/12/29 02:17:00;;;;;;;;;87.00;67.50;8.10;84.70;;;;;;5017531;28;8794;-65
2021/12/29 02:19:26;;;;;;;;;92.75;73.75;7.90;86.20;;;;;;5017378;28;8892;-64
2021/12/29 02:22:12;;;;;;;;;85.50;67.00;7.90;86.80;;;;;;5017743;28;8886;-64
2021/12/29 02:24:41;;;;;;;;;89.75;70.50;8.30;83.40;;;;;;5017439;28;8785;-65
2021/12/29 02:27:10;;;;;;;;;80.25;63.75;8.40;81.70;;;;;;5017296;28;8758;-64
2021/12/29 02:29:37;;;;;;;;;85.75;69.75;8.10;84.40;;;;;;5017325;28;8754;-64
2021/12/29 02:32:03;;;;;;;;;87.50;65.75;8.20;83.80;;;;;;5017429;28;8750;-64
2021/12/29 02:34:30;;;;;;;;;80.75;62.50;8.00;85.30;;;;;;5017100;28;9412;-65
2021/12/29 02:36:58;;;;;;;;;88.75;67.75;8.10;84.90;;;;;;5017384;28;8762;-65
2021/12/29 02:39:24;;;;;;;;;88.25;69.00;7.90;87.00;;;;;;5017297;28;9529;-65
2021/12/29 02:41:53;;;;;;;;;80.50;65.50;7.60;89.50;;;;;;5017104;28;8734;-66
2021/12/29 02:44:26;;;;;;;;;91.50;75.00;7.60;90.40;;;;;;5017173;28;8778;-64
2021/12/29 02:46:53;;;;;;;;;87.25;69.00;7.80;89.40;;;;;;5016133;28;8801;-64
2021/12/29 02:49:20;;;;;;;;;85.00;66.50;8.20;85.40;;;;;;5016550;28;8784;-63
2021/12/29 02:51:45;;;;;;;;;83.00;65.00;7.50;90.40;;;;;;5016853;28;8786;-66
2021/12/29 02:54:12;;;;;;;;;78.00;60.50;7.60;90.70;;;;;;5016784;28;8813;-64
2021/12/29 02:56:38;;;;;;;;;88.50;68.00;7.80;88.80;;;;;;5016588;28;8766;-65
2021/12/29 02:59:04;;;;;;;;;76.00;58.00;7.50;90.60;;;;;;5016759;28;8781;-64
2021/12/29 03:01:30;;;;;;;;;88.00;67.50;7.60;90.70;;;;;;5016863;28;8758;-64
2021/12/29 03:03:57;;;;;;;;;86.00;64.00;7.70;90.20;;;;;;5016643;28;8884;-64
2021/12/29 03:06:25;;;;;;;;;85.00;64.50;8.00;88.40;;;;;;5016509;28;8789;-64
2021/12/29 03:08:51;;;;;;;;;90.25;67.50;7.90;87.80;;;;;;5016596;28;8762;-64
2021/12/29 03:11:17;;;;;;;;;85.75;66.50;7.90;88.60;;;;;;5016449;28;8770;-64
2021/12/29 03:13:43;;;;;;;;;81.50;63.25;8.10;86.70;;;;;;5016653;28;8786;-64
2021/12/29 03:16:10;;;;;;;;;79.75;62.50;8.10;85.90;;;;;;5016214;28;8765;-65
2021/12/29 03:18:37;;;;;;;;;78.50;62.00;8.30;84.40;;;;;;5016231;28;8824;-64
2021/12/29 03:21:04;;;;;;;;;84.25;64.25;8.40;83.20;;;;;;5016506;28;8770;-65
2021/12/29 03:23:30;;;;;;;;;83.00;64.00;8.60;82.00;;;;;;5016573;28;8782;-64
2021/12/29 03:25:56;;;;;;;;;85.75;66.25;8.60;80.80;;;;;;5016436;28;8896;-63
2021/12/29 03:28:24;;;;;;;;;80.75;62.00;8.70;81.10;;;;;;5016163;28;8936;-64
2021/12/29 03:30:54;;;;;;;;;85.00;65.25;8.50;81.00;;;;;;5016342;28;8869;-64
2021/12/29 03:33:21;;;;;;;;;86.75;69.00;8.40;82.50;;;;;;5016205;28;8875;-65
2021/12/29 03:35:51;;;;;;;;;81.00;62.75;8.40;83.00;;;;;;5016049;28;8777;-64
2021/12/29 03:38:20;;;;;;;;;79.50;60.75;8.30;83.90;;;;;;5016315;28;8785;-64
2021/12/29 03:40:46;;;;;;;;;87.25;66.75;8.30;84.10;;;;;;5016153;28;9504;-65
2021/12/29 03:43:13;;;;;;;;;79.75;62.75;8.50;83.10;;;;;;5015891;28;8781;-65
2021/12/29 03:45:42;;;;;;;;;81.75;63.75;8.50;82.60;;;;;;5015874;28;8840;-65
2021/12/29 03:48:09;;;;;;;;;82.50;65.00;8.40;83.30;;;;;;5016213;28;8825;-65
2021/12/29 03:50:36;;;;;;;;;85.00;66.50;8.50;82.30;;;;;;5015861;28;8766;-65
2021/12/29 03:53:02;;;;;;;;;77.00;60.50;8.30;83.50;;;;;;5015652;28;8829;-63
2021/12/29 03:55:28;;;;;;;;;86.50;67.00;8.00;86.20;;;;;;5015942;28;8782;-64
2021/12/29 03:57:54;;;;;;;;;86.50;68.25;7.70;90.10;;;;;;5015679;28;9471;-65
2021/12/29 04:00:21;;;;;;;;;85.50;63.75;7.90;88.20;;;;;;5015602;28;8785;-64
2021/12/29 04:02:48;;;;;;;;;74.50;60.00;7.80;88.60;;;;;;5015849;28;8754;-64
2021/12/29 04:05:17;;;;;;;;;76.25;61.00;7.60;89.60;;;;;;5015788;28;9490;-64
2021/12/29 04:07:43;;;;;;;;;78.50;59.75;7.40;91.60;;;;;;5015208;28;8766;-64
2021/12/29 04:10:10;;;;;;;;;74.25;58.00;7.20;92.20;;;;;;5015253;28;8754;-64
2021/12/29 04:12:39;;;;;;;;;79.00;59.50;6.80;94.70;;;;;;5015335;28;8766;-63
2021/12/29 04:15:06;;;;;;;;;76.50;59.75;6.80;95.10;;;;;;5015635;28;8780;-64
2021/12/29 04:17:37;;;;;;;;;77.00;60.75;6.90;95.40;;;;;;5015457;28;8794;-64
2021/12/29 04:22:58;;;;;;;;;73.25;58.25;6.80;96.30;;;;;;5015351;28;8785;-64
2021/12/29 04:25:25;;;;;;;;;76.00;59.25;7.20;94.40;;;;;;5015188;28;8761;-64
2021/12/29 04:27:53;;;;;;;;;76.50;60.00;7.50;92.00;;;;;;5015359;28;9526;-63
2021/12/29 04:30:19;;;;;;;;;79.75;60.75;7.50;91.70;;;;;;4997704;28;8806;-65
2021/12/29 04:32:45;;;;;;;;;81.00;64.00;7.40;91.60;;;;;;5015030;28;8806;-63
2021/12/29 04:35:11;;;;;;;;;64.75;53.75;7.20;92.80;;;;;;5015292;28;8876;-63
2021/12/29 04:37:38;;;;;;;;;79.50;60.50;7.20;92.60;;;;;;5015232;28;8836;-63
2021/12/29 04:40:06;;;;;;;;;74.00;58.25;6.80;95.30;;;;;;5014830;28;8762;-65
2021/12/29 04:42:32;;;;;;;;;79.25;60.00;6.60;96.30;;;;;;5015052;28;8786;-63
2021/12/29 04:44:57;;;;;;;;;66.75;51.75;6.80;95.70;;;;;;5015167;28;8802;-65
2021/12/29 04:47:28;;;;;;;;;73.50;59.00;6.70;95.70;;;;;;5015017;28;9424;-64
2021/12/29 04:50:03;;;;;;;;;73.00;57.50;6.80;95.30;;;;;;5014846;28;8784;-64
2021/12/29 04:52:30;;;;;;;;;66.50;53.50;6.50;97.00;;;;;;5014749;28;8850;-64
2021/12/29 04:54:56;;;;;;;;;70.00;55.00;6.60;97.30;;;;;;5014721;28;9549;-63
2021/12/29 04:57:23;;;;;;;;;70.00;53.50;6.40;98.20;;;;;;5014963;28;8772;-64
2021/12/29 04:59:49;;;;;;;;;65.00;50.50;6.30;98.40;;;;;;5014706;28;8781;-64
2021/12/29 05:02:15;;;;;;;;;62.75;49.50;6.40;98.50;;;;;;5015002;28;8750;-64
2021/12/29 05:04:47;;;;;;;;;55.75;47.25;6.80;96.50;;;;;;5014628;28;8758;-63
2021/12/29 05:09:59;;;;;;;;;62.75;51.50;6.70;94.90;;;;;;5014655;28;8770;-64
2021/12/29 05:12:25;;;;;;;;;51.50;45.00;6.60;96.60;;;;;;5014835;28;8746;-63
2021/12/29 05:14:51;;;;;;;;;61.75;50.00;6.40;97.30;;;;;;5014832;28;8783;-62
2021/12/29 05:17:17;;;;;;;;;54.25;46.50;6.20;98.60;;;;;;5014415;28;8810;-64
2021/12/29 05:19:43;;;;;;;;;59.50;48.25;5.90;99.90;;;;;;5014748;28;8778;-64
2021/12/29 05:22:09;;;;;;;;;53.00;44.75;5.90;99.90;;;;;;5018199;28;8754;-62
2021/12/29 05:24:34;;;;;;;;;49.00;40.75;6.10;99.90;;;;;;5018770;28;8801;-62
2021/12/29 05:27:02;;;;;;;;;53.75;47.25;6.00;99.90;;;;;;5018576;28;9423;-64
2021/12/29 05:29:28;;;;;;;;;59.25;47.75;6.40;98.60;;;;;;5018552;28;8793;-64
2021/12/29 05:31:54;;;;;;;;;47.25;40.50;6.70;96.00;;;;;;5018600;28;8746;-63
2021/12/29 05:34:20;;;;;;;;;48.00;39.75;6.80;94.80;;;;;;5018473;28;8782;-64
2021/12/29 05:36:46;;;;;;;;;58.50;47.25;6.50;95.20;;;;;;5018570;28;8769;-65
2021/12/29 05:39:12;;;;;;;;;51.25;44.50;6.40;96.40;;;;;;5017233;28;8766;-64
2021/12/29 05:41:39;;;;;;;;;59.25;47.00;6.60;95.90;;;;;;5017234;28;8868;-64
2021/12/29 05:44:05;;;;;;;;;53.25;46.25;6.70;95.60;;;;;;5018486;28;8900;-63
2021/12/29 05:46:31;;;;;;;;;58.75;45.25;6.70;94.70;;;;;;5017978;28;8801;-64
2021/12/29 05:48:57;;;;;;;;;47.50;42.00;6.70;95.50;;;;;;5018312;28;8794;-64
2021/12/29 05:51:22;;;;;;;;;57.50;47.50;6.80;94.80;;;;;;5018223;28;8775;-62
2021/12/29 05:53:48;;;;;;;;;53.75;46.00;6.70;95.20;;;;;;5018130;28;8798;-68
2021/12/29 05:56:14;;;;;;;;;63.25;52.25;6.50;96.30;;;;;;5018155;28;9443;-67
2021/12/29 05:58:40;;;;;;;;;52.25;46.00;6.40;96.90;;;;;;5018138;28;9468;-64
2021/12/29 06:01:06;;;;;;;;;65.75;54.00;6.60;96.70;;;;;;5018068;28;8869;-63
2021/12/29 06:03:32;;;;;;;;;61.75;50.25;6.50;96.50;;;;;;5017801;28;8750;-65
2021/12/29 06:05:57;;;;;;;;;61.00;51.00;6.50;96.50;;;;;;5018014;28;8832;-63
2021/12/29 06:08:23;;;;;;;;;54.50;45.75;6.50;96.10;;;;;;5017641;28;8762;-65
2021/12/29 06:10:49;;;;;;;;;54.75;45.50;6.60;96.40;;;;;;5017914;28;8836;-63
2021/12/29 06:13:15;;;;;;;;;51.75;45.50;6.70;94.70;;;;;;5017535;28;8912;-66
2021/12/29 06:15:41;;;;;;;;;53.50;46.75;6.50;97.70;;;;;;5017541;28;8765;-63
2021/12/29 06:18:06;;;;;;;;;52.00;42.50;6.60;96.70;;;;;;5017508;28;8818;-63
2021/12/29 06:20:32;;;;;;;;;57.00;44.50;6.70;95.40;;;;;;5015758;28;8781;-62
2021/12/29 06:22:58;;;;;;;;;66.00;53.75;6.70;95.20;;;;;;5016971;28;8867;-63
2021/12/29 06:25:29;;;;;;;;;63.25;51.50;6.50;95.70;;;;;;5017558;28;8805;-67
2021/12/29 06:27:55;;;;;;;;;58.25;51.00;6.30;96.70;;;;;;5017163;28;8786;-63
2021/12/29 06:30:20;;;;;;;;;67.50;53.75;6.50;96.60;;;;;;5015515;28;8801;-63
2021/12/29 06:32:47;;;;;;;;;68.00;53.75;6.60;95.70;;;;;;5015332;28;8802;-65
2021/12/29 06:35:14;;;;;;;;;70.00;55.50;6.60;95.50;;;;;;5016628;28;8816;-66
2021/12/29 06:37:40;;;;;;;;;64.00;53.00;6.50;95.50;;;;;;5017051;28;8770;-65
2021/12/29 06:40:07;;;;;;;;;75.25;58.25;6.50;96.50;;;;;;5016463;28;8849;-64
2021/12/29 06:42:33;;;;;;;;;71.00;57.25;6.40;96.50;;;;;;5015536;28;8864;-64
2021/12/29 06:44:58;;;;;;;;;67.75;53.25;6.60;95.90;;;;;;5016465;28;8774;-65
2021/12/29 06:47:24;;;;;;;;;68.00;56.00;6.30;96.40;;;;;;5016338;28;8828;-64
2021/12/29 06:49:50;;;;;;;;;72.00;56.00;6.30;97.40;;;;;;5015863;28;8872;-64
2021/12/29 06:52:16;;;;;;;;;69.25;56.25;6.30;97.40;;;;;;5015324;28;8797;-63
2021/12/29 06:54:44;;;;;;;;;70.50;56.25;6.30;96.80;;;;;;5016887;28;8786;-61
2021/12/29 06:57:10;;;;;;;;;71.00;56.25;6.00;99.10;;;;;;5015681;28;8885;-64
2021/12/29 06:59:36;;;;;;;;;69.75;56.00;6.00;99.30;;;;;;5016505;28;8777;-63
2021/12/29 07:02:02;;;;;;;;;58.25;47.75;6.10;99.60;;;;;;5016386;28;8762;-63
2021/12/29 07:04:28;;;;;;;;;67.00;56.00;6.40;97.60;;;;;;5016737;28;8816;-62
2021/12/29 07:06:54;;;;;;;;;70.75;57.50;6.60;96.10;;;;;;5016549;28;9400;-63
2021/12/29 07:09:20;;;;;;;;;62.50;48.75;6.70;95.30;;;;;;5016892;28;8746;-63
2021/12/29 07:11:46;;;;;;;;;71.00;56.25;6.80;95.10;;;;;;5016482;28;8785;-63
2021/12/29 07:14:12;;;;;;;;;69.25;55.50;6.70;95.20;;;;;;5016400;28;8859;-63
2021/12/29 07:16:39;;;;;;;;;71.00;58.50;6.80;95.20;;;;;;5016428;28;8876;-63
2021/12/29 07:19:06;;;;;;;;;72.25;58.50;6.80;94.30;;;;;;5016106;28;8852;-63
2021/12/29 07:21:32;;;;;;;;;74.75;59.00;6.80;95.00;;;;;;5016601;28;8769;-63
2021/12/29 07:23:58;;;;;;;;;75.50;60.50;6.90;94.60;;;;;;5016308;28;8829;-62
2021/12/29 07:26:25;;;;;;;;;74.50;59.25;6.90;94.30;;;;;;5016293;28;8758;-63
2021/12/29 07:28:51;;;;;;;;;76.75;60.25;7.10;93.50;;;;;;5016557;28;8781;-63
2021/12/29 07:31:18;;;;;;;;;71.25;57.25;7.20;93.10;;;;;;5016360;28;8770;-62
2021/12/29 07:33:44;;;;;;;;;85.00;67.00;7.40;92.20;;;;;;5016379;28;8804;-64
2021/12/29 07:36:11;;;;;;;;;84.50;65.75;7.50;91.70;;;;;;5016239;28;9448;-64
2021/12/29 07:38:38;;;;;;;;;82.25;67.00;7.50;91.30;;;;;;5016239;28;8849;-64
2021/12/29 07:41:04;;;;;;;;;84.75;66.00;7.00;93.20;;;;;;5016195;28;8762;-64
2021/12/29 07:43:30;;;;;;;;;90.25;72.00;6.90;94.10;;;;;;5015022;28;8790;-65
2021/12/29 07:45:56;;;;;;;;;93.25;75.50;6.80;94.50;;;;;;5016075;28;8754;-65
2021/12/29 07:48:28;;;;;;;;;94.50;77.00;7.10;94.10;;;;;;5015637;28;8766;-64
2021/12/29 07:50:54;;;;;;;;;91.25;73.50;7.50;92.30;;;;;;5016020;28;8769;-63
2021/12/29 07:53:20;;;;;;;;;90.25;73.50;7.50;91.40;;;;;;5015704;28;8890;-64
2021/12/29 07:55:46;;;;;;;;;94.75;82.50;7.60;91.40;;;;;;5015910;28;9439;-62
2021/12/29 07:58:12;;;;;;;;;92.50;80.50;7.80;90.90;;;;;;5015864;28;8762;-61
2021/12/29 08:00:38;;;;;;;;;91.75;80.25;7.80;90.60;;;;;;5015793;28;8900;-62
2021/12/29 08:03:04;;;;;;;;;101.75;93.50;8.10;89.40;;;;;;5015540;28;8784;-62
2021/12/29 08:05:30;;;;;;;;;98.00;88.00;8.30;85.90;;;;;;5015564;28;8742;-61
2021/12/29 08:07:56;;;;;;;;;112.25;105.75;8.10;88.80;;;;;;5015826;28;8758;-62
2021/12/29 08:10:21;;;;;;;;;123.75;112.75;7.90;90.50;;;;;;5015297;28;8750;-61
2021/12/29 08:12:47;;;;;;;;;140.00;126.00;8.10;88.40;;;;;;5015240;28;8750;-62
2021/12/29 08:15:13;;;;;;;;;138.00;125.00;8.00;89.30;;;;;;5015612;28;8750;-62
2021/12/29 08:17:40;;;;;;;;;117.75;110.75;8.20;89.40;;;;;;5015212;28;8802;-61
2021/12/29 08:20:08;;;;;;;;;123.75;111.75;8.30;88.00;;;;;;5015243;28;8794;-62
2021/12/29 08:22:34;;;;;;;;;125.00;117.50;8.30;88.00;;;;;;5015183;28;8857;-62
2021/12/29 08:25:00;;;;;;;;;127.50;110.50;8.00;89.90;;;;;;5015069;28;8865;-63
2021/12/29 08:27:26;;;;;;;;;125.00;115.75;7.70;92.30;;;;;;5015302;28;8864;-61
2021/12/29 08:29:52;;;;;;;;;122.50;113.50;7.60;93.20;;;;;;5015266;28;9542;-60
2021/12/29 08:32:20;;;;;;;;;115.75;107.50;7.80;92.80;;;;;;5015040;28;8893;-63
2021/12/29 08:34:46;;;;;;;;;115.75;107.00;7.90;92.40;;;;;;5014257;28;8900;-62
2021/12/29 08:37:12;;;;;;;;;117.00;108.25;8.00;91.90;;;;;;5015018;28;8766;-61
2021/12/29 08:39:38;;;;;;;;;97.25;86.50;8.00;91.90;;;;;;5014885;28;8794;-61
2021/12/29 08:42:04;;;;;;;;;107.00;99.25;8.60;89.70;;;;;;5015152;28;8754;-62
2021/12/29 08:44:30;;;;;;;;;111.75;105.25;8.50;90.10;;;;;;5015097;28;8788;-61
2021/12/29 08:46:56;;;;;;;;;118.00;111.75;8.70;88.80;;;;;;5014880;28;8790;-60
2021/12/29 08:49:21;;;;;;;;;122.50;113.00;8.30;91.50;;;;;;5015033;28;8781;-60
2021/12/29 08:51:47;;;;;;;;;133.00;121.75;8.80;89.70;;;;;;5014771;28;8766;-61
2021/12/29 08:54:13;;;;;;;;;136.75;128.00;9.20;85.20;;;;;;5014462;28;8785;-61
2021/12/29 08:56:39;;;;;;;;;132.75;125.25;9.50;83.50;;;;;;5014986;28;8819;-61
2021/12/29 08:59:05;;;;;;;;;130.00;127.00;9.10;85.10;;;;;;5014724;28;8762;-60
2021/12/29 09:01:31;;;;;;;;;138.00;128.00;9.20;85.10;;;;;;5014672;28;8778;-61
2021/12/29 09:03:57;;;;;;;;;160.75;149.75;9.30;84.40;;;;;;5014614;28;8742;-62
2021/12/29 09:06:23;;;;;;;;;196.00;178.25;9.70;82.00;;;;;;5014560;28;8782;-60
2021/12/29 09:08:49;;;;;;;;;202.75;181.50;10.00;81.10;;;;;;5014724;28;8786;-61
2021/12/29 09:11:15;;;;;;;;;211.00;197.25;10.10;81.00;;;;;;5015001;28;8766;-63
2021/12/29 09:13:41;;;;;;;;;214.00;196.75;10.20;80.30;;;;;;5014451;28;8794;-63
2021/12/29 09:16:08;;;;;;;;;217.00;197.75;10.20;80.40;;;;;;5014211;28;8785;-60
2021/12/29 09:18:35;;;;;;;;;253.75;229.25;10.40;79.40;;;;;;5014229;28;8928;-60
2021/12/29 09:21:11;;;;;;;;;260.50;250.25;10.20;81.30;;;;;;5014353;28;8876;-60
2021/12/29 09:23:38;;;;;;;;;233.00;218.25;10.10;81.50;;;;;;5014376;28;8905;-59
2021/12/29 09:26:05;;;;;;;;;196.75;183.50;10.50;79.30;;;;;;5014411;28;8766;-60
2021/12/29 09:28:32;;;;;;;;;142.00;129.00;10.70;77.40;;;;;;5014476;28;8845;-60
2021/12/29 09:30:58;;;;;;;;;147.75;140.50;10.10;80.10;;;;;;5014567;28;8762;-63
2021/12/29 09:33:24;;;;;;;;;125.75;121.25;10.10;83.60;;;;;;5013054;28;8809;-63
2021/12/29 09:35:57;;;;;;;;;130.50;120.50;10.60;79.90;;;;;;5012387;28;8766;-63
2021/12/29 09:38:23;;;;;;;;;112.00;109.00;10.90;77.60;;;;;;5014566;28;9531;-62
2021/12/29 09:40:50;;;;;;;;;124.75;114.50;11.20;76.00;;;;;;5014288;28;8750;-61
2021/12/29 09:43:17;;;;;;;;;118.75;111.75;11.40;74.80;;;;;;5014160;28;8784;-62
2021/12/29 09:45:45;;;;;;;;;97.75;93.75;11.10;78.00;;;;;;5014442;28;8774;-63
2021/12/29 09:48:11;;;;;;;;;101.75;90.75;11.20;76.80;;;;;;5014599;28;8786;-63
2021/12/29 09:50:37;;;;;;;;;107.25;100.00;11.40;75.10;;;;;;5014438;28;9416;-62
2021/12/29 09:53:04;;;;;;;;;96.00;89.50;11.20;76.90;;;;;;5014049;28;8882;-62
2021/12/29 09:55:30;;;;;;;;;90.50;85.25;10.90;80.20;;;;;;5014073;28;8861;-63
2021/12/29 09:57:58;;;;;;;;;93.50;86.50;10.90;79.30;;;;;;5014024;28;8774;-63
2021/12/29 10:00:29;;;;;;;;;84.25;71.50;11.20;78.40;;;;;;5014322;28;8774;-63
2021/12/29 10:02:59;;;;;;;;;84.25;72.00;11.30;78.30;;;;;;5014072;28;8766;-63
2021/12/29 10:05:27;;;;;;;;;62.25;51.25;11.20;77.30;;;;;;5014010;28;8782;-63
2021/12/29 10:08:10;;;;;;;;;92.50;80.25;11.10;79.80;;;;;;5016956;28;8835;-63
2021/12/29 10:10:40;;;;;;;;;118.75;108.50;11.30;79.30;;;;;;5017605;28;8769;-63
2021/12/29 10:13:07;;;;;;;;;119.75;113.00;11.50;79.20;;;;;;5017534;28;8829;-63
2021/12/29 10:15:39;;;;;;;;;105.00;103.00;11.80;76.80;;;;;;5017793;28;8762;-62
2021/12/29 10:18:14;;;;;;;;;135.00;118.75;12.00;74.90;;;;;;5017563;28;8813;-63
2021/12/29 10:20:56;;;;;;;;;123.00;112.00;12.20;74.40;;;;;;5017472;28;8789;-63
2021/12/29 10:23:28;;;;;;;;;139.50;127.50;12.00;75.70;;;;;;5017692;28;8787;-63
2021/12/29 10:26:03;;;;;;;;;149.25;136.25;12.30;74.50;;;;;;5017309;28;8758;-63
2021/12/29 10:28:31;;;;;;;;;138.75;129.50;12.80;72.30;;;;;;5017576;28;8809;-63
2021/12/29 10:31:08;;;;;;;;;114.25;103.75;12.60;72.60;;;;;;5017411;28;8746;-63
2021/12/29 10:33:40;;;;;;;;;111.50;102.00;13.10;70.40;;;;;;5017458;28;8879;-63
2021/12/29 10:36:18;;;;;;;;;115.50;104.75;12.90;70.20;;;;;;5017383;28;8758;-63
2021/12/29 10:38:50;;;;;;;;;109.50;102.25;13.00;69.90;;;;;;5016968;28;8754;-65
2021/12/29 10:41:16;;;;;;;;;84.00;74.75;13.10;69.90;;;;;;5017082;28;8839;-65
2021/12/29 10:43:57;;;;;;;;;87.75;81.25;13.30;69.10;;;;;;5017015;28;8778;-63
2021/12/29 10:46:24;;;;;;;;;90.00;85.75;13.70;67.20;;;;;;5017109;28;8782;-62
2021/12/29 10:48:53;;;;;;;;;87.50;84.00;13.80;66.00;;;;;;5017225;28;8844;-62
2021/12/29 10:51:25;;;;;;;;;87.00;81.00;14.00;65.40;;;;;;5016946;28;8778;-62
2021/12/29 10:53:51;;;;;;;;;89.00;83.25;15.10;65.50;;;;;;5016774;28;8798;-63
2021/12/29 10:56:25;;;;;;;;;102.00;94.00;16.80;60.20;;;;;;5016944;28;8805;-63
2021/12/29 10:58:53;;;;;;;;;106.00;104.25;16.60;57.00;;;;;;5016889;28;9435;-62
2021/12/29 11:01:22;;;;;;;;;118.50;112.00;15.80;58.60;;;;;;5016681;28;8750;-62
2021/12/29 11:03:50;;;;;;;;;104.25;100.00;15.00;61.10;;;;;;5016722;28;8758;-63
2021/12/29 11:06:19;;;;;;;;;104.75;98.75;14.70;62.40;;;;;;5016663;28;8874;-62
2021/12/29 11:08:58;;;;;;;;;106.75;100.75;15.10;61.80;;;;;;5016494;28;8746;-62
2021/12/29 11:11:39;;;;;;;;;119.25;114.50;15.80;60.40;;;;;;5016410;28;8778;-62
2021/12/29 11:14:17;;;;;;;;;163.00;154.75;19.10;53.70;;;;;;5016278;28;8875;-62
2021/12/29 11:16:45;;;;;;;;;165.50;157.00;18.10;52.60;;;;;;5016371;28;8792;-62
2021/12/29 11:19:11;;;;;;;;;163.00;148.25;16.10;57.40;;;;;;5016001;28;8797;-62
2021/12/29 11:21:42;;;;;;;;;153.75;145.00;15.20;61.40;;;;;;5016361;28;9419;-62
2021/12/29 11:24:25;;;;;;;;;157.00;149.00;14.60;63.30;;;;;;5016628;28;8743;-62
2021/12/29 11:26:52;;;;;;;;;134.00;128.25;14.00;64.30;;;;;;5016262;28;8800;-62
2021/12/29 11:29:20;;;;;;;;;124.50;113.25;13.90;65.30;;;;;;5016063;28;8762;-62
2021/12/29 11:32:01;;;;;;;;;133.75;129.00;13.90;65.30;;;;;;5016095;28;9426;-62
2021/12/29 11:34:29;;;;;;;;;138.75;126.00;13.70;65.80;;;;;;5015999;28;8808;-61
2021/12/29 11:37:09;;;;;;;;;125.50;120.00;13.50;67.10;;;;;;5016098;28;8754;-63
2021/12/29 11:39:41;;;;;;;;;124.00;117.75;13.20;68.50;;;;;;5016208;28;9416;-61
2021/12/29 11:42:08;;;;;;;;;127.50;125.00;13.30;69.40;;;;;;5015952;28;8780;-62
2021/12/29 11:44:33;;;;;;;;;139.75;125.75;13.40;69.40;;;;;;5016099;28;8766;-62
2021/12/29 11:46:59;;;;;;;;;130.00;123.00;13.40;69.80;;;;;;5015919;28;9504;-61
2021/12/29 11:49:25;;;;;;;;;131.50;125.00;13.50;69.20;;;;;;5015645;28;8770;-61
2021/12/29 11:52:02;;;;;;;;;120.50;115.75;13.70;67.80;;;;;;5015700;28;8758;-61
2021/12/29 11:54:34;;;;;;;;;114.50;106.00;13.60;67.70;;;;;;5015867;28;9506;-61
2021/12/29 11:57:12;;;;;;;;;119.00;112.50;13.10;69.70;;;;;;5015839;28;8880;-61
2021/12/29 11:59:38;;;;;;;;;131.50;120.00;12.80;71.20;;;;;;5015380;28;8786;-63
2021/12/29 12:02:05;;;;;;;;;139.00;123.75;13.10;70.50;;;;;;5015311;28;8784;-63
2021/12/29 12:04:31;;;;;;;;;97.75;91.00;13.30;69.70;;;;;;5012767;28;8864;-65
2021/12/29 12:07:10;;;;;;;;;83.25;71.75;13.00;70.10;;;;;;5013412;28;8770;-65
2021/12/29 12:09:47;;;;;;;;;93.25;89.25;12.40;75.20;;;;;;5014294;28;8916;-62
2021/12/29 12:12:14;;;;;;;;;84.25;72.25;12.00;78.20;;;;;;5011245;28;8758;-63
2021/12/29 12:14:52;;;;;;;;;73.25;59.75;11.50;82.00;;;;;;5014078;28;8806;-64
2021/12/29 12:17:25;;;;;;;;;70.75;57.75;11.50;82.40;;;;;;5012315;28;8787;-63
2021/12/29 12:20:18;;;;;;;;;78.00;64.50;11.70;80.90;;;;;;5011656;28;8810;-64
2021/12/29 12:22:52;;;;;;;;;70.00;56.50;11.40;83.70;;;;;;5009255;28;8778;-64
2021/12/29 12:25:29;;;;;;;;;65.50;53.50;11.20;86.20;;;;;;5012973;28;8890;-64
2021/12/29 12:28:02;;;;;;;;;72.50;58.00;11.30;86.80;;;;;;5012983;28;8762;-61
2021/12/29 12:30:38;;;;;;;;;68.25;53.50;11.40;85.60;;;;;;5013421;28;8778;-63
2021/12/29 12:33:11;;;;;;;;;79.50;64.00;11.00;86.10;;;;;;5012313;28;8896;-61
2021/12/29 12:35:46;;;;;;;;;77.25;63.00;11.30;86.20;;;;;;5010646;28;8756;-60
2021/12/29 12:38:27;;;;;;;;;65.25;52.25;12.40;79.70;;;;;;5013960;28;8750;-58
2021/12/29 12:41:01;;;;;;;;;71.25;57.00;13.80;71.40;;;;;;5014638;28;8792;-64
2021/12/29 12:43:28;;;;;;;;;67.75;55.00;14.50;67.00;;;;;;5011868;28;8774;-62
2021/12/29 12:45:54;;;;;;;;;68.75;55.25;14.40;65.80;;;;;;5013496;28;8774;-62
2021/12/29 12:48:28;;;;;;;;;72.75;60.50;14.00;66.20;;;;;;5015191;28;8893;-64